Airfield :
LOGIN :

Register | Disclaimer

   EN    FR    IT 

 










Legend :    VFR   Marginal VFR   IFR   Intensive IFR   Very Intensive IFR
Visi :
Ceiling :
>= 8 km
>= 3000ft
5 to 8 km
1000 to 3000 ft
1500m to 5 km
500 to 1000 ft
800 to 1500m
200 to 500 ft
< 800m
< 200 ft
Symbols :   Thunderstorms  Fog  Heavy snow  Heavy precipitations  Wind > 20 kt
SIGMETs :     Misc.  Thunderstorms  Icing  Turbulence  Mountain Waves  Volcanic Ashes






- Airport Elevation : 302 ft
- IATA code : MAH


LEMH - Menorca

CURRENT METAR :
  • 101100Z 11008KT 080V160 9999 BKN011 17/14 Q1014

EXPIRED METARs :
  • 101030Z 10006KT 050V140 9999 BKN011 17/14 Q1014
  • 101000Z 12006KT 070V160 9999 SCT006 BKN010 17/14 Q1015
  • 100930Z 08011KT 050V110 9000 SCT005 OVC007 17/14 Q1014
  • 100900Z 10008KT 050V130 8000 BKN004 OVC007 16/14 Q1015
  • 100830Z 06008KT 030V100 7000 OVC004 15/14 Q1015

TAF TAF LEMH
Valid from the 10 at 09:00 until the 11 at 09:00 UTC


100800Z 1009/1109 07010KT 9999 BKN035 TX19/1012Z TN10/1106Z
TEMPO 1009/1012 4000 RA BKN005
BECMG 1011/1014 26007KT
PROB40
TEMPO 1018/1106 1500 BR BCFG BKN005



MET'MAP, your aeronautical weather chart ! - Copyright ORBIFLY December 2007 - Disclaimer

ORBIFLY MET'MAP TEAM :

Programming & Development : Alexandra Zaïnal
Concept & original design : Baudouin d'Aumeries
Assistance for programming : Marc-Olivier Méhu
Technical & hardware support : Manuel Goepfert

Contact : metmap@orbifly.com




SOURCES & CREDITS :

   NOAA